sensor_id;sensor_type;location;lat;lon;timestamp;pressure;altitude;pressure_sealevel;temperature;humidity
78990;BME280;68390;52.130;21.218;2024-02-26T07:29:14;99780.84;;;7.13;100.00
78990;BME280;68390;52.130;21.218;2024-02-26T07:31:41;99778.09;;;7.47;100.00
78990;BME280;68390;52.130;21.218;2024-02-26T07:34:06;99784.13;;;7.74;100.00
78990;BME280;68390;52.130;21.218;2024-02-26T07:36:32;99783.28;;;7.90;100.00
78990;BME280;68390;52.130;21.218;2024-02-26T07:38:57;99779.22;;;8.02;100.00
78990;BME280;68390;52.130;21.218;2024-02-26T07:41:22;99795.28;;;8.14;100.00
78990;BME280;68390;52.130;21.218;2024-02-26T07:43:48;99780.59;;;8.23;100.00
78990;BME280;68390;52.130;21.218;2024-02-26T07:46:14;99777.56;;;8.34;100.00
78990;BME280;68390;52.130;21.218;2024-02-26T07:48:39;99789.66;;;8.64;100.00
78990;BME280;68390;52.130;21.218;2024-02-26T07:51:04;99790.31;;;8.90;100.00
78990;BME280;68390;52.130;21.218;2024-02-26T07:53:30;99779.81;;;9.10;100.00
78990;BME280;68390;52.130;21.218;2024-02-26T07:55:56;99778.38;;;9.30;100.00
78990;BME280;68390;52.130;21.218;2024-02-26T07:58:23;99791.88;;;9.40;100.00
78990;BME280;68390;52.130;21.218;2024-02-26T08:00:49;99785.19;;;9.42;100.00
78990;BME280;68390;52.130;21.218;2024-02-26T08:03:15;99794.91;;;9.45;100.00
78990;BME280;68390;52.130;21.218;2024-02-26T08:05:41;99800.59;;;9.43;100.00
78990;BME280;68390;52.130;21.218;2024-02-26T08:08:08;99792.72;;;9.40;100.00
78990;BME280;68390;52.130;21.218;2024-02-26T08:10:34;99803.84;;;9.39;100.00
78990;BME280;68390;52.130;21.218;2024-02-26T08:12:59;99801.97;;;9.39;100.00
78990;BME280;68390;52.130;21.218;2024-02-26T08:15:33;99791.00;;;9.39;100.00
78990;BME280;68390;52.130;21.218;2024-02-26T08:18:00;99797.13;;;9.49;100.00
78990;BME280;68390;52.130;21.218;2024-02-26T08:20:28;99808.09;;;9.49;100.00
78990;BME280;68390;52.130;21.218;2024-02-26T08:22:53;99809.81;;;9.50;100.00
78990;BME280;68390;52.130;21.218;2024-02-26T08:25:19;99816.16;;;9.51;100.00
78990;BME280;68390;52.130;21.218;2024-02-26T08:27:44;99809.81;;;9.50;100.00
78990;BME280;68390;52.130;21.218;2024-02-26T08:30:10;99803.34;;;9.43;100.00
78990;BME280;68390;52.130;21.218;2024-02-26T08:32:38;99814.31;;;9.43;100.00
78990;BME280;68390;52.130;21.218;2024-02-26T08:35:04;99813.44;;;9.43;100.00
78990;BME280;68390;52.130;21.218;2024-02-26T08:37:30;99824.53;;;9.49;100.00
78990;BME280;68390;52.130;21.218;2024-02-26T08:39:55;99822.66;;;9.50;100.00
78990;BME280;68390;52.130;21.218;2024-02-26T08:42:21;99813.91;;;9.46;100.00
78990;BME280;68390;52.130;21.218;2024-02-26T08:44:48;99813.44;;;9.43;100.00
78990;BME280;68390;52.130;21.218;2024-02-26T08:47:14;99808.81;;;9.35;100.00
78990;BME280;68390;52.130;21.218;2024-02-26T08:49:43;99830.06;;;9.41;100.00
78990;BME280;68390;52.130;21.218;2024-02-26T08:52:08;99831.78;;;9.42;100.00
78990;BME280;68390;52.130;21.218;2024-02-26T08:54:34;99824.56;;;9.41;100.00
78990;BME280;68390;52.130;21.218;2024-02-26T08:56:59;99822.53;;;9.35;100.00
78990;BME280;68390;52.130;21.218;2024-02-26T08:59:24;99830.09;;;9.33;100.00
78990;BME280;68390;52.130;21.218;2024-02-26T09:01:50;99824.09;;;9.30;100.00
78990;BME280;68390;52.130;21.218;2024-02-26T09:04:15;99832.16;;;9.31;100.00
78990;BME280;68390;52.130;21.218;2024-02-26T09:06:41;99830.09;;;9.33;100.00
78990;BME280;68390;52.130;21.218;2024-02-26T09:09:06;99830.94;;;9.34;100.00
78990;BME280;68390;52.130;21.218;2024-02-26T09:11:31;99829.75;;;9.28;100.00
78990;BME280;68390;52.130;21.218;2024-02-26T09:13:57;99827.19;;;9.27;100.00
78990;BME280;68390;52.130;21.218;2024-02-26T09:16:22;99840.19;;;9.33;100.00
78990;BME280;68390;52.130;21.218;2024-02-26T09:18:47;99838.81;;;9.29;100.00
78990;BME280;68390;52.130;21.218;2024-02-26T09:21:13;99835.94;;;9.22;100.00
78990;BME280;68390;52.130;21.218;2024-02-26T09:23:38;99836.59;;;9.24;100.00
78990;BME280;68390;52.130;21.218;2024-02-26T09:26:05;99837.47;;;9.25;100.00
78990;BME280;68390;52.130;21.218;2024-02-26T09:28:31;99840.03;;;9.26;100.00
78990;BME280;68390;52.130;21.218;2024-02-26T09:31:03;99827.19;;;9.27;100.00
78990;BME280;68390;52.130;21.218;2024-02-26T09:33:29;99848.41;;;9.33;100.00
78990;BME280;68390;52.130;21.218;2024-02-26T09:35:54;99841.06;;;9.33;100.00
78990;BME280;68390;52.130;21.218;2024-02-26T09:38:20;99844.28;;;9.37;100.00
78990;BME280;68390;52.130;21.218;2024-02-26T09:40:45;99835.88;;;9.38;100.00
78990;BME280;68390;52.130;21.218;2024-02-26T09:43:14;99850.56;;;9.45;100.00
78990;BME280;68390;52.130;21.218;2024-02-26T09:45:41;99846.16;;;9.44;100.00
78990;BME280;68390;52.130;21.218;2024-02-26T09:48:08;99859.88;;;9.44;100.00
78990;BME280;68390;52.130;21.218;2024-02-26T09:50:35;99860.50;;;9.46;100.00
78990;BME280;68390;52.130;21.218;2024-02-26T09:53:01;99856.44;;;9.42;100.00
78990;BME280;68390;52.130;21.218;2024-02-26T09:55:28;99848.25;;;9.34;100.00
78990;BME280;68390;52.130;21.218;2024-02-26T09:57:53;99867.91;;;9.38;100.00
78990;BME280;68390;52.130;21.218;2024-02-26T10:00:21;99858.50;;;9.40;100.00
78990;BME280;68390;52.130;21.218;2024-02-26T10:02:48;99862.78;;;9.43;100.00
78990;BME280;68390;52.130;21.218;2024-02-26T10:05:17;99863.25;;;9.46;100.00
78990;BME280;68390;52.130;21.218;2024-02-26T10:07:44;99851.59;;;9.52;100.00
78990;BME280;68390;52.130;21.218;2024-02-26T10:10:10;99856.00;;;9.62;100.00
78990;BME280;68390;52.130;21.218;2024-02-26T10:12:36;99853.41;;;9.68;100.00
78990;BME280;68390;52.130;21.218;2024-02-26T10:15:01;99851.00;;;9.73;100.00
78990;BME280;68390;52.130;21.218;2024-02-26T10:17:26;99869.97;;;9.83;100.00
78990;BME280;68390;52.130;21.218;2024-02-26T10:19:54;99854.84;;;9.87;100.00
78990;BME280;68390;52.130;21.218;2024-02-26T10:22:22;99844.25;;;9.84;100.00
78990;BME280;68390;52.130;21.218;2024-02-26T10:24:48;99848.66;;;9.93;100.00
78990;BME280;68390;52.130;21.218;2024-02-26T10:27:14;99843.13;;;10.01;100.00
78990;BME280;68390;52.130;21.218;2024-02-26T10:29:40;99849.91;;;10.13;100.00
78990;BME280;68390;52.130;21.218;2024-02-26T10:32:07;99845.44;;;10.20;100.00
78990;BME280;68390;52.130;21.218;2024-02-26T10:34:34;99843.44;;;10.37;100.00
78990;BME280;68390;52.130;21.218;2024-02-26T10:37:01;99856.13;;;10.61;100.00
78990;BME280;68390;52.130;21.218;2024-02-26T10:39:26;99843.84;;;10.72;100.00
78990;BME280;68390;52.130;21.218;2024-02-26T10:41:52;99849.06;;;10.81;100.00
78990;BME280;68390;52.130;21.218;2024-02-26T10:44:18;99853.94;;;10.94;100.00
78990;BME280;68390;52.130;21.218;2024-02-26T10:46:46;99849.22;;;11.02;100.00
78990;BME280;68390;52.130;21.218;2024-02-26T10:49:16;99852.09;;;11.09;100.00
78990;BME280;68390;52.130;21.218;2024-02-26T10:51:45;99847.44;;;11.10;100.00
78990;BME280;68390;52.130;21.218;2024-02-26T10:54:15;99838.25;;;11.17;100.00
78990;BME280;68390;52.130;21.218;2024-02-26T10:56:42;99844.59;;;11.18;100.00
78990;BME280;68390;52.130;21.218;2024-02-26T10:59:09;99834.28;;;11.20;100.00
78990;BME280;68390;52.130;21.218;2024-02-26T11:01:35;99833.81;;;11.31;100.00
78990;BME280;68390;52.130;21.218;2024-02-26T11:04:03;99836.94;;;11.28;100.00
78990;BME280;68390;52.130;21.218;2024-02-26T11:06:29;99839.69;;;11.28;100.00
78990;BME280;68390;52.130;21.218;2024-02-26T11:08:55;99831.25;;;11.29;100.00
78990;BME280;68390;52.130;21.218;2024-02-26T11:11:21;99832.69;;;11.40;100.00
78990;BME280;68390;52.130;21.218;2024-02-26T11:13:48;99837.31;;;11.54;100.00
78990;BME280;68390;52.130;21.218;2024-02-26T11:16:20;99835.91;;;11.58;100.00
78990;BME280;68390;52.130;21.218;2024-02-26T11:18:47;99823.19;;;11.57;100.00
78990;BME280;68390;52.130;21.218;2024-02-26T11:21:16;99823.97;;;11.51;100.00
78990;BME280;68390;52.130;21.218;2024-02-26T11:23:44;99819.31;;;11.52;100.00
78990;BME280;68390;52.130;21.218;2024-02-26T11:26:11;99829.63;;;11.64;100.00
78990;BME280;68390;52.130;21.218;2024-02-26T11:28:38;99826.88;;;11.64;100.00
78990;BME280;68390;52.130;21.218;2024-02-26T11:31:04;99831.81;;;11.69;100.00
78990;BME280;68390;52.130;21.218;2024-02-26T11:33:30;99829.06;;;11.69;100.00
78990;BME280;68390;52.130;21.218;2024-02-26T11:35:56;99825.56;;;11.60;100.00
78990;BME280;68390;52.130;21.218;2024-02-26T11:38:24;99825.38;;;11.62;99.85
78990;BME280;68390;52.130;21.218;2024-02-26T11:40:51;99815.59;;;11.59;100.00
78990;BME280;68390;52.130;21.218;2024-02-26T11:43:18;99826.09;;;11.85;98.65
78990;BME280;68390;52.130;21.218;2024-02-26T11:45:49;99824.19;;;12.00;99.21
78990;BME280;68390;52.130;21.218;2024-02-26T11:48:20;99824.06;;;12.08;98.96
78990;BME280;68390;52.130;21.218;2024-02-26T11:50:48;99817.06;;;12.27;99.15
78990;BME280;68390;52.130;21.218;2024-02-26T11:55:45;99824.56;;;12.76;93.60
78990;BME280;68390;52.130;21.218;2024-02-26T11:58:10;99822.16;;;12.94;91.64
78990;BME280;68390;52.130;21.218;2024-02-26T12:00:35;99819.94;;;13.11;92.58
78990;BME280;68390;52.130;21.218;2024-02-26T12:03:02;99814.38;;;13.26;89.93
78990;BME280;68390;52.130;21.218;2024-02-26T12:05:31;99817.78;;;13.28;88.98
78990;BME280;68390;52.130;21.218;2024-02-26T12:18:06;99806.66;;;13.14;87.33
78990;BME280;68390;52.130;21.218;2024-02-26T12:20:33;99799.78;;;13.10;86.81
78990;BME280;68390;52.130;21.218;2024-02-26T12:23:01;99816.34;;;13.10;87.10
78990;BME280;68390;52.130;21.218;2024-02-26T12:25:28;99810.44;;;13.13;86.85
78990;BME280;68390;52.130;21.218;2024-02-26T12:27:54;99801.91;;;13.08;86.05
78990;BME280;68390;52.130;21.218;2024-02-26T12:30:21;99827.88;;;13.20;84.64
78990;BME280;68390;52.130;21.218;2024-02-26T12:32:48;99823.69;;;13.25;85.08
78990;BME280;68390;52.130;21.218;2024-02-26T12:35:14;99813.13;;;13.28;83.49
78990;BME280;68390;52.130;21.218;2024-02-26T12:37:41;99818.63;;;13.28;83.53
78990;BME280;68390;52.130;21.218;2024-02-26T12:40:11;99820.94;;;13.25;84.03
78990;BME280;68390;52.130;21.218;2024-02-26T12:42:38;99818.13;;;13.18;85.05
78990;BME280;68390;52.130;21.218;2024-02-26T12:45:12;99819.41;;;13.22;85.60
78990;BME280;68390;52.130;21.218;2024-02-26T12:47:38;99819.69;;;13.27;85.75
78990;BME280;68390;52.130;21.218;2024-02-26T12:50:04;99813.91;;;13.22;83.95
78990;BME280;68390;52.130;21.218;2024-02-26T12:52:32;99816.94;;;13.27;83.25
78990;BME280;68390;52.130;21.218;2024-02-26T12:54:57;99811.84;;;13.31;84.35
78990;BME280;68390;52.130;21.218;2024-02-26T12:57:23;99816.56;;;13.37;84.85
78990;BME280;68390;52.130;21.218;2024-02-26T12:59:49;99814.84;;;13.36;84.91
78990;BME280;68390;52.130;21.218;2024-02-26T13:02:15;99813.59;;;13.38;84.45
78990;BME280;68390;52.130;21.218;2024-02-26T13:04:40;99807.00;;;13.39;84.61
78990;BME280;68390;52.130;21.218;2024-02-26T13:07:06;99805.44;;;13.23;84.12
78990;BME280;68390;52.130;21.218;2024-02-26T13:09:35;99816.88;;;13.20;84.07
78990;BME280;68390;52.130;21.218;2024-02-26T13:12:03;99815.16;;;13.19;84.87
78990;BME280;68390;52.130;21.218;2024-02-26T13:14:29;99817.06;;;13.19;85.57
78990;BME280;68390;52.130;21.218;2024-02-26T13:17:00;99808.59;;;13.20;85.14
78990;BME280;68390;52.130;21.218;2024-02-26T13:19:26;99812.19;;;13.21;85.82
78990;BME280;68390;52.130;21.218;2024-02-26T13:21:53;99803.06;;;13.20;84.42
78990;BME280;68390;52.130;21.218;2024-02-26T13:24:19;99817.13;;;13.26;83.50
78990;BME280;68390;52.130;21.218;2024-02-26T13:26:45;99813.97;;;13.29;82.20
78990;BME280;68390;52.130;21.218;2024-02-26T13:29:18;99811.44;;;13.34;82.92
78990;BME280;68390;52.130;21.218;2024-02-26T13:31:44;99813.81;;;13.37;82.84
78990;BME280;68390;52.130;21.218;2024-02-26T13:34:09;99815.50;;;13.38;83.56
78990;BME280;68390;52.130;21.218;2024-02-26T13:36:34;99814.88;;;13.42;84.38
78990;BME280;68390;52.130;21.218;2024-02-26T13:39:00;99807.84;;;13.40;83.55
78990;BME280;68390;52.130;21.218;2024-02-26T13:41:26;99808.94;;;13.39;82.22
78990;BME280;68390;52.130;21.218;2024-02-26T13:43:52;99819.53;;;13.42;82.76
78990;BME280;68390;52.130;21.218;2024-02-26T13:46:18;99813.84;;;13.43;81.92
78990;BME280;68390;52.130;21.218;2024-02-26T13:48:43;99817.84;;;13.41;81.60
78990;BME280;68390;52.130;21.218;2024-02-26T13:51:09;99811.47;;;13.40;82.32
78990;BME280;68390;52.130;21.218;2024-02-26T13:53:34;99817.44;;;13.44;81.71
78990;BME280;68390;52.130;21.218;2024-02-26T13:56:00;99818.28;;;13.38;82.73
78990;BME280;68390;52.130;21.218;2024-02-26T13:58:27;99828.47;;;13.44;82.50
78990;BME280;68390;52.130;21.218;2024-02-26T14:00:55;99825.06;;;13.42;83.11
78990;BME280;68390;52.130;21.218;2024-02-26T14:03:21;99840.75;;;13.41;83.57
78990;BME280;68390;52.130;21.218;2024-02-26T14:05:47;99826.53;;;13.38;84.29
78990;BME280;68390;52.130;21.218;2024-02-26T14:08:12;99826.09;;;13.34;83.71
78990;BME280;68390;52.130;21.218;2024-02-26T14:10:38;99823.91;;;13.30;82.72
78990;BME280;68390;52.130;21.218;2024-02-26T14:13:04;99812.66;;;13.25;83.38
78990;BME280;68390;52.130;21.218;2024-02-26T14:15:30;99810.28;;;13.21;83.52
78990;BME280;68390;52.130;21.218;2024-02-26T14:17:55;99808.34;;;13.15;83.53
78990;BME280;68390;52.130;21.218;2024-02-26T14:20:24;99807.22;;;13.10;84.58
78990;BME280;68390;52.130;21.218;2024-02-26T14:22:51;99807.19;;;13.03;84.49
78990;BME280;68390;52.130;21.218;2024-02-26T14:25:18;99819.59;;;12.93;85.42
78990;BME280;68390;52.130;21.218;2024-02-26T14:27:45;99825.47;;;12.83;85.90
78990;BME280;68390;52.130;21.218;2024-02-26T14:30:12;99823.50;;;12.77;86.45
78990;BME280;68390;52.130;21.218;2024-02-26T14:32:37;99823.03;;;12.73;87.26
78990;BME280;68390;52.130;21.218;2024-02-26T14:35:05;99814.47;;;12.62;86.88
78990;BME280;68390;52.130;21.218;2024-02-26T14:37:31;99823.56;;;12.62;84.85
78990;BME280;68390;52.130;21.218;2024-02-26T14:39:57;99810.81;;;12.55;85.02
78990;BME280;68390;52.130;21.218;2024-02-26T14:42:22;99824.97;;;12.52;86.14
78990;BME280;68390;52.130;21.218;2024-02-26T14:44:49;99820.25;;;12.45;86.38
78990;BME280;68390;52.130;21.218;2024-02-26T14:47:16;99816.16;;;12.41;86.96
78990;BME280;68390;52.130;21.218;2024-02-26T14:49:41;99808.44;;;12.30;87.74
78990;BME280;68390;52.130;21.218;2024-02-26T14:52:07;99830.47;;;12.30;88.97
78990;BME280;68390;52.130;21.218;2024-02-26T14:54:33;99834.00;;;12.24;89.69
78990;BME280;68390;52.130;21.218;2024-02-26T14:57:03;99829.25;;;12.18;90.17
78990;BME280;68390;52.130;21.218;2024-02-26T14:59:30;99819.22;;;12.10;90.44
78990;BME280;68390;52.130;21.218;2024-02-26T15:01:56;99813.66;;;12.04;91.48
78990;BME280;68390;52.130;21.218;2024-02-26T15:04:22;99817.16;;;11.98;91.90
78990;BME280;68390;52.130;21.218;2024-02-26T15:06:49;99819.66;;;11.93;92.18
78990;BME280;68390;52.130;21.218;2024-02-26T15:09:14;99829.63;;;11.94;93.07
78990;BME280;68390;52.130;21.218;2024-02-26T15:11:39;99829.63;;;11.94;92.85
78990;BME280;68390;52.130;21.218;2024-02-26T15:14:07;99837.47;;;11.97;93.48
78990;BME280;68390;52.130;21.218;2024-02-26T15:16:32;99848.09;;;12.00;93.46
78990;BME280;68390;52.130;21.218;2024-02-26T15:18:58;99838.53;;;11.96;93.92
78990;BME280;68390;52.130;21.218;2024-02-26T15:21:23;99847.06;;;12.01;95.02
78990;BME280;68390;52.130;21.218;2024-02-26T15:23:49;99837.75;;;12.02;95.52
78990;BME280;68390;52.130;21.218;2024-02-26T15:26:17;99834.53;;;11.98;96.15
78990;BME280;68390;52.130;21.218;2024-02-26T15:28:42;99831.31;;;11.95;96.48
78990;BME280;68390;52.130;21.218;2024-02-26T15:31:08;99849.06;;;11.92;97.06
78990;BME280;68390;52.130;21.218;2024-02-26T15:33:33;99841.97;;;11.83;97.45
78990;BME280;68390;52.130;21.218;2024-02-26T15:35:58;99842.16;;;11.82;97.84
78990;BME280;68390;52.130;21.218;2024-02-26T15:38:24;99851.84;;;11.77;99.12
78990;BME280;68390;52.130;21.218;2024-02-26T15:40:49;99847.94;;;11.72;99.54
78990;BME280;68390;52.130;21.218;2024-02-26T15:43:15;99854.47;;;11.71;99.80
78990;BME280;68390;52.130;21.218;2024-02-26T15:45:41;99846.13;;;11.64;99.75
78990;BME280;68390;52.130;21.218;2024-02-26T15:48:07;99852.28;;;11.66;100.00
78990;BME280;68390;52.130;21.218;2024-02-26T15:50:32;99850.50;;;11.59;100.00
78990;BME280;68390;52.130;21.218;2024-02-26T15:52:58;99838.75;;;11.50;100.00
78990;BME280;68390;52.130;21.218;2024-02-26T15:55:23;99852.56;;;11.42;100.00
78990;BME280;68390;52.130;21.218;2024-02-26T15:57:49;99854.88;;;11.38;100.00
78990;BME280;68390;52.130;21.218;2024-02-26T16:00:15;99854.09;;;11.30;100.00
78990;BME280;68390;52.130;21.218;2024-02-26T16:02:40;99849.25;;;11.17;100.00
78990;BME280;68390;52.130;21.218;2024-02-26T16:05:07;99864.22;;;11.15;100.00
78990;BME280;68390;52.130;21.218;2024-02-26T16:07:43;99851.91;;;11.11;100.00
78990;BME280;68390;52.130;21.218;2024-02-26T16:10:09;99854.66;;;11.11;100.00
78990;BME280;68390;52.130;21.218;2024-02-26T16:12:40;99857.94;;;11.06;100.00
78990;BME280;68390;52.130;21.218;2024-02-26T16:15:08;99854.03;;;11.00;100.00
78990;BME280;68390;52.130;21.218;2024-02-26T16:17:37;99860.22;;;11.02;100.00
78990;BME280;68390;52.130;21.218;2024-02-26T16:20:06;99866.75;;;11.01;100.00
78990;BME280;68390;52.130;21.218;2024-02-26T16:22:34;99879.16;;;10.97;100.00
78990;BME280;68390;52.130;21.218;2024-02-26T16:25:02;99884.66;;;10.97;100.00
78990;BME280;68390;52.130;21.218;2024-02-26T16:27:29;99882.44;;;10.93;100.00
78990;BME280;68390;52.130;21.218;2024-02-26T16:29:55;99885.69;;;10.96;100.00
78990;BME280;68390;52.130;21.218;2024-02-26T16:32:20;99880.28;;;10.88;100.00
78990;BME280;68390;52.130;21.218;2024-02-26T16:34:46;99895.31;;;10.92;100.00
78990;BME280;68390;52.130;21.218;2024-02-26T16:37:11;99891.72;;;10.92;100.00
78990;BME280;68390;52.130;21.218;2024-02-26T16:39:38;99880.63;;;10.85;100.00
78990;BME280;68390;52.130;21.218;2024-02-26T16:42:04;99885.94;;;10.87;100.00
78990;BME280;68390;52.130;21.218;2024-02-26T16:44:33;99893.63;;;10.91;100.00
78990;BME280;68390;52.130;21.218;2024-02-26T16:46:58;99888.13;;;10.91;100.00
78990;BME280;68390;52.130;21.218;2024-02-26T16:49:24;99891.91;;;10.90;100.00
78990;BME280;68390;52.130;21.218;2024-02-26T16:51:49;99883.75;;;10.82;100.00
78990;BME280;68390;52.130;21.218;2024-02-26T16:54:14;99887.53;;;10.81;100.00
78990;BME280;68390;52.130;21.218;2024-02-26T16:56:40;99886.22;;;10.77;100.00
78990;BME280;68390;52.130;21.218;2024-02-26T16:59:05;99885.53;;;10.75;100.00
78990;BME280;68390;52.130;21.218;2024-02-26T17:01:30;99901.09;;;10.83;100.00
78990;BME280;68390;52.130;21.218;2024-02-26T17:03:56;99892.22;;;10.73;100.00
78990;BME280;68390;52.130;21.218;2024-02-26T17:06:22;99892.41;;;10.71;100.00
78990;BME280;68390;52.130;21.218;2024-02-26T17:08:49;99903.72;;;10.76;100.00
78990;BME280;68390;52.130;21.218;2024-02-26T17:11:15;99903.03;;;10.74;100.00
78990;BME280;68390;52.130;21.218;2024-02-26T17:13:41;99905.28;;;10.71;100.00
78990;BME280;68390;52.130;21.218;2024-02-26T17:16:07;99903.47;;;10.63;100.00
78990;BME280;68390;52.130;21.218;2024-02-26T17:18:33;99905.84;;;10.66;100.00
78990;BME280;68390;52.130;21.218;2024-02-26T17:20:58;99911.34;;;10.66;100.00
78990;BME280;68390;52.130;21.218;2024-02-26T17:23:24;99888.44;;;10.51;100.00
78990;BME280;68390;52.130;21.218;2024-02-26T17:25:52;99910.66;;;10.64;100.00
78990;BME280;68390;52.130;21.218;2024-02-26T17:28:18;99909.31;;;10.60;100.00
78990;BME280;68390;52.130;21.218;2024-02-26T17:30:44;99911.19;;;10.59;100.00
78990;BME280;68390;52.130;21.218;2024-02-26T17:33:09;99912.44;;;10.57;100.00
78990;BME280;68390;52.130;21.218;2024-02-26T17:35:34;99918.22;;;10.62;100.00
78990;BME280;68390;52.130;21.218;2024-02-26T17:38:00;99917.75;;;10.58;100.00
78990;BME280;68390;52.130;21.218;2024-02-26T17:40:27;99912.81;;;10.54;100.00
78990;BME280;68390;52.130;21.218;2024-02-26T17:42:54;99913.84;;;10.53;100.00
78990;BME280;68390;52.130;21.218;2024-02-26T17:45:20;99915.91;;;10.51;100.00
78990;BME280;68390;52.130;21.218;2024-02-26T17:47:50;99907.19;;;10.47;100.00
78990;BME280;68390;52.130;21.218;2024-02-26T17:50:16;99906.34;;;10.47;100.00
78990;BME280;68390;52.130;21.218;2024-02-26T17:52:42;99910.47;;;10.43;100.00
78990;BME280;68390;52.130;21.218;2024-02-26T17:55:07;99919.38;;;10.45;100.00
78990;BME280;68390;52.130;21.218;2024-02-26T17:57:33;99903.16;;;10.35;100.00
78990;BME280;68390;52.130;21.218;2024-02-26T17:59:58;99916.03;;;10.35;100.00
78990;BME280;68390;52.130;21.218;2024-02-26T18:02:24;99910.19;;;10.29;100.00
78990;BME280;68390;52.130;21.218;2024-02-26T18:04:49;99909.91;;;10.24;100.00
78990;BME280;68390;52.130;21.218;2024-02-26T18:07:15;99916.94;;;10.27;100.00
78990;BME280;68390;52.130;21.218;2024-02-26T18:09:40;99915.41;;;10.24;100.00
78990;BME280;68390;52.130;21.218;2024-02-26T18:12:06;99914.72;;;10.22;100.00
78990;BME280;68390;52.130;21.218;2024-02-26T18:14:32;99916.44;;;10.23;100.00
78990;BME280;68390;52.130;21.218;2024-02-26T18:16:57;99920.56;;;10.19;100.00
78990;BME280;68390;52.130;21.218;2024-02-26T18:19:23;99907.72;;;10.12;100.00
78990;BME280;68390;52.130;21.218;2024-02-26T18:21:48;99921.59;;;10.18;100.00
78990;BME280;68390;52.130;21.218;2024-02-26T18:24:14;99909.78;;;10.10;100.00
78990;BME280;68390;52.130;21.218;2024-02-26T18:26:41;99914.41;;;10.09;100.00
78990;BME280;68390;52.130;21.218;2024-02-26T18:29:07;99914.06;;;10.12;100.00
78990;BME280;68390;52.130;21.218;2024-02-26T18:31:32;99912.16;;;10.13;100.00
78990;BME280;68390;52.130;21.218;2024-02-26T18:33:58;99913.19;;;10.12;100.00
78990;BME280;68390;52.130;21.218;2024-02-26T18:36:23;99914.78;;;10.06;100.00
78990;BME280;68390;52.130;21.218;2024-02-26T18:38:50;99921.94;;;10.07;100.00
78990;BME280;68390;52.130;21.218;2024-02-26T18:41:20;99908.78;;;10.03;100.00
78990;BME280;68390;52.130;21.218;2024-02-26T18:43:47;99917.19;;;10.01;100.00
78990;BME280;68390;52.130;21.218;2024-02-26T18:46:12;99908.84;;;9.94;100.00
78990;BME280;68390;52.130;21.218;2024-02-26T18:48:38;99921.31;;;9.97;100.00
78990;BME280;68390;52.130;21.218;2024-02-26T18:51:04;99909.69;;;9.95;100.00
78990;BME280;68390;52.130;21.218;2024-02-26T18:53:29;99918.25;;;9.92;100.00
78990;BME280;68390;52.130;21.218;2024-02-26T18:55:54;99916.22;;;9.94;100.00
78990;BME280;68390;52.130;21.218;2024-02-26T18:58:20;99906.31;;;9.85;100.00
78990;BME280;68390;52.130;21.218;2024-02-26T19:00:45;99914.84;;;9.90;100.00
78990;BME280;68390;52.130;21.218;2024-02-26T19:03:12;99912.28;;;9.88;100.00
78990;BME280;68390;52.130;21.218;2024-02-26T19:05:38;99929.59;;;9.89;100.00
78990;BME280;68390;52.130;21.218;2024-02-26T19:08:03;99930.94;;;9.93;100.00
78990;BME280;68390;52.130;21.218;2024-02-26T19:10:30;99929.91;;;9.94;100.00
78990;BME280;68390;52.130;21.218;2024-02-26T19:12:56;99930.78;;;9.94;100.00
78990;BME280;68390;52.130;21.218;2024-02-26T19:15:23;99927.19;;;9.94;100.00
78990;BME280;68390;52.130;21.218;2024-02-26T19:17:49;99917.59;;;9.90;100.00
78990;BME280;68390;52.130;21.218;2024-02-26T19:20:15;99924.09;;;9.89;100.00
78990;BME280;68390;52.130;21.218;2024-02-26T19:22:42;99924.09;;;9.89;100.00
78990;BME280;68390;52.130;21.218;2024-02-26T19:25:11;99913.50;;;9.86;100.00
78990;BME280;68390;52.130;21.218;2024-02-26T19:27:37;99934.72;;;9.92;100.00
78990;BME280;68390;52.130;21.218;2024-02-26T19:30:03;99930.44;;;9.89;100.00
78990;BME280;68390;52.130;21.218;2024-02-26T19:32:29;99915.19;;;9.87;100.00
78990;BME280;68390;52.130;21.218;2024-02-26T19:34:55;99937.13;;;9.87;100.00
78990;BME280;68390;52.130;21.218;2024-02-26T19:37:20;99937.34;;;9.85;100.00
78990;BME280;68390;52.130;21.218;2024-02-26T19:39:46;99940.56;;;9.89;100.00
78990;BME280;68390;52.130;21.218;2024-02-26T19:42:11;99929.28;;;9.84;100.00
78990;BME280;68390;52.130;21.218;2024-02-26T19:44:37;99928.59;;;9.82;100.00
78990;BME280;68390;52.130;21.218;2024-02-26T19:47:03;99923.09;;;9.82;100.00
78990;BME280;68390;52.130;21.218;2024-02-26T19:49:29;99939.22;;;9.85;100.00
78990;BME280;68390;52.130;21.218;2024-02-26T19:51:54;99935.78;;;9.83;100.00
78990;BME280;68390;52.130;21.218;2024-02-26T19:54:20;99934.06;;;9.82;100.00
78990;BME280;68390;52.130;21.218;2024-02-26T19:56:45;99930.47;;;9.81;100.00
78990;BME280;68390;52.130;21.218;2024-02-26T19:59:15;99938.53;;;9.83;100.00
78990;BME280;68390;52.130;21.218;2024-02-26T20:01:41;99935.78;;;9.83;100.00
78990;BME280;68390;52.130;21.218;2024-02-26T20:04:09;99930.47;;;9.81;100.00
78990;BME280;68390;52.130;21.218;2024-02-26T20:06:40;99931.50;;;9.80;100.00
78990;BME280;68390;52.130;21.218;2024-02-26T20:09:07;99943.16;;;9.82;100.00
78990;BME280;68390;52.130;21.218;2024-02-26T20:11:35;99934.59;;;9.77;100.00
78990;BME280;68390;52.130;21.218;2024-02-26T20:14:02;99944.19;;;9.81;100.00
78990;BME280;68390;52.130;21.218;2024-02-26T20:16:28;99935.97;;;9.81;100.00
78990;BME280;68390;52.130;21.218;2024-02-26T20:18:53;99941.59;;;9.88;100.00
78990;BME280;68390;52.130;21.218;2024-02-26T20:21:20;99937.97;;;9.87;100.00
78990;BME280;68390;52.130;21.218;2024-02-26T20:23:45;99926.88;;;9.81;100.00